Wetterdaten: Woche 01.09.08 - 07.09.08 (KW36)
Datum Zeit Temperatur Luftfeuchte Luftdruck Niederschlag Wind Richtung Sonnenschein Solar Taupunkt Windchill Windben
01.09.2008 00:00 18.9 C 90 % 1014.8 hPa 9.6 l/m 4.0 km/h (1 Bft) O-SO 0.00 h 0 W/m 17.2 C 18.9 C 6.9 km/h (2 Bft)
01.09.2008 01:00 16.5 C 91 % 1015.8 hPa 7.0 l/m 7.3 km/h (2 Bft) SO 0.00 h 0 W/m 15.0 C 16.5 C 12.1 km/h (2 Bft)
01.09.2008 02:00 16.8 C 96 % 1016.3 hPa 5.0 l/m 3.9 km/h (1 Bft) S-SO 0.00 h 0 W/m 16.3 C 16.8 C 8.2 km/h (2 Bft)
01.09.2008 03:00 16.7 C 99 % 1016.8 hPa 2.4 l/m 1.4 km/h (1 Bft) N 0.00 h 0 W/m 16.5 C 16.7 C 3.0 km/h (1 Bft)
01.09.2008 04:00 16.7 C 100 % 1016.0 hPa 0.0 l/m 0.3 km/h (0 Bft) W 0.00 h 0 W/m 16.6 C 16.7 C 0.9 km/h (0 Bft)
01.09.2008 05:00 16.2 C 100 % 1015.7 hPa 0.0 l/m 0.1 km/h (0 Bft) W 0.00 h 0 W/m 16.2 C 16.2 C 0.6 km/h (0 Bft)
01.09.2008 06:00 15.7 C 100 % 1015.7 hPa 0.0 l/m 0.9 km/h (0 Bft) S-SO 0.00 h 5 W/m 15.7 C 15.7 C 2.2 km/h (1 Bft)
01.09.2008 07:00 15.8 C 100 % 1016.4 hPa 0.0 l/m 0.2 km/h (0 Bft) S 0.00 h 31 W/m 15.8 C 15.8 C 0.7 km/h (0 Bft)
01.09.2008 08:00 16.7 C 100 % 1016.7 hPa 0.0 l/m 1.9 km/h (1 Bft) W-NW 0.42 h 158 W/m 16.7 C 16.7 C 3.7 km/h (1 Bft)
01.09.2008 09:00 17.1 C 98 % 1017.2 hPa 0.0 l/m 3.2 km/h (1 Bft) W-NW 0.00 h 112 W/m 16.8 C 17.1 C 5.9 km/h (2 Bft)
01.09.2008 10:00 18.4 C 91 % 1017.9 hPa 0.0 l/m 4.9 km/h (1 Bft) W 0.50 h 421 W/m 16.9 C 18.4 C 8.8 km/h (2 Bft)
01.09.2008 11:00 19.1 C 84 % 1018.1 hPa 0.0 l/m 7.2 km/h (2 Bft) W 0.25 h 335 W/m 16.3 C 19.1 C 11.5 km/h (2 Bft)
01.09.2008 12:00 20.0 C 82 % 1017.9 hPa 0.0 l/m 4.0 km/h (1 Bft) W 0.15 h 354 W/m 16.9 C 20.0 C 7.1 km/h (2 Bft)
01.09.2008 13:00 20.8 C 79 % 1017.7 hPa 0.0 l/m 3.3 km/h (1 Bft) W 0.00 h 290 W/m 17.0 C 20.8 C 6.2 km/h (2 Bft)
01.09.2008 14:00 20.5 C 78 % 1017.5 hPa 0.2 l/m 7.0 km/h (2 Bft) W 0.00 h 177 W/m 16.6 C 20.5 C 11.0 km/h (2 Bft)
01.09.2008 15:00 18.0 C 93 % 1018.0 hPa 1.2 l/m 2.7 km/h (1 Bft) W 0.00 h 114 W/m 16.8 C 18.0 C 5.2 km/h (1 Bft)
01.09.2008 16:00 18.3 C 93 % 1017.7 hPa 0.0 l/m 0.8 km/h (0 Bft) S 0.00 h 163 W/m 17.1 C 18.3 C 2.9 km/h (1 Bft)
01.09.2008 17:00 19.6 C 89 % 1017.1 hPa 0.0 l/m 1.2 km/h (1 Bft) S-SO 0.50 h 269 W/m 17.8 C 19.6 C 3.4 km/h (1 Bft)
01.09.2008 18:00 20.0 C 86 % 1017.2 hPa 0.0 l/m 1.1 km/h (0 Bft) SW 0.25 h 125 W/m 17.6 C 20.0 C 3.4 km/h (1 Bft)
01.09.2008 19:00 19.0 C 89 % 1017.4 hPa 0.0 l/m 0.5 km/h (0 Bft) S-SO 0.05 h 39 W/m 17.3 C 19.0 C 2.0 km/h (1 Bft)
01.09.2008 20:00 18.1 C 91 % 1017.8 hPa 0.0 l/m 1.6 km/h (1 Bft) W-SW 0.00 h 5 W/m 16.5 C 18.1 C 3.4 km/h (1 Bft)
01.09.2008 21:00 17.9 C 86 % 1018.2 hPa 0.0 l/m 2.1 km/h (1 Bft) W 0.00 h 0 W/m 15.6 C 17.9 C 4.3 km/h (1 Bft)
01.09.2008 22:00 17.4 C 86 % 1018.5 hPa 0.0 l/m 1.1 km/h (0 Bft) W-SW 0.00 h 0 W/m 15.1 C 17.4 C 2.9 km/h (1 Bft)
01.09.2008 23:00 17.1 C 87 % 1018.4 hPa 0.0 l/m 0.9 km/h (0 Bft) W 0.00 h 0 W/m 15.0 C 17.1 C 2.2 km/h (1 Bft)
02.09.2008 00:00 16.6 C 89 % 1018.3 hPa 0.0 l/m 0.7 km/h (0 Bft) O-SO 0.00 h 0 W/m 14.8 C 16.6 C 1.4 km/h (1 Bft)
02.09.2008 01:00 16.0 C 93 % 1017.8 hPa 0.0 l/m 0.6 km/h (0 Bft) O-SO 0.00 h 0 W/m 14.8 C 16.0 C 1.4 km/h (1 Bft)
02.09.2008 02:00 15.7 C 95 % 1017.5 hPa 0.0 l/m 1.5 km/h (1 Bft) O-SO 0.00 h 0 W/m 14.9 C 15.7 C 2.4 km/h (1 Bft)
02.09.2008 03:00 15.6 C 96 % 1017.3 hPa 0.0 l/m 0.1 km/h (0 Bft) O-SO 0.00 h 0 W/m 14.9 C 15.6 C 0.9 km/h (0 Bft)
02.09.2008 04:00 15.5 C 96 % 1016.8 hPa 0.0 l/m 0.1 km/h (0 Bft) O-SO 0.00 h 0 W/m 15.0 C 15.5 C 0.4 km/h (0 Bft)
02.09.2008 05:00 15.5 C 96 % 1016.3 hPa 0.0 l/m 0.1 km/h (0 Bft) O-SO 0.00 h 0 W/m 14.9 C 15.5 C 0.6 km/h (0 Bft)
02.09.2008 06:00 15.1 C 97 % 1015.9 hPa 0.0 l/m 0.0 km/h (0 Bft) O-SO 0.00 h 6 W/m 14.5 C 15.1 C 0.4 km/h (0 Bft)
02.09.2008 07:00 14.8 C 98 % 1015.7 hPa 0.0 l/m 1.7 km/h (1 Bft) O-SO 0.00 h 34 W/m 14.5 C 14.8 C 2.6 km/h (1 Bft)
02.09.2008 08:00 15.7 C 96 % 1015.5 hPa 0.0 l/m 0.6 km/h (0 Bft) N-NO 0.83 h 186 W/m 15.1 C 15.7 C 1.6 km/h (1 Bft)
02.09.2008 09:00 17.6 C 87 % 1015.2 hPa 0.0 l/m 1.5 km/h (1 Bft) N 1.00 h 340 W/m 15.4 C 17.6 C 3.4 km/h (1 Bft)
02.09.2008 10:00 19.5 C 77 % 1014.8 hPa 0.0 l/m 1.6 km/h (1 Bft) N 0.97 h 474 W/m 15.4 C 19.5 C 3.4 km/h (1 Bft)
02.09.2008 11:00 21.0 C 73 % 1014.2 hPa 0.0 l/m 1.1 km/h (1 Bft) W 1.00 h 621 W/m 15.9 C 21.0 C 2.8 km/h (1 Bft)
02.09.2008 12:00 22.8 C 67 % 1013.5 hPa 0.0 l/m 2.2 km/h (1 Bft) S-SO 1.00 h 744 W/m 16.4 C 22.8 C 5.1 km/h (1 Bft)
02.09.2008 13:00 22.8 C 66 % 1012.8 hPa 0.0 l/m 1.8 km/h (1 Bft) NW 0.50 h 536 W/m 16.2 C 22.8 C 4.2 km/h (1 Bft)
02.09.2008 14:00 24.6 C 60 % 1011.8 hPa 0.0 l/m 3.9 km/h (1 Bft) W 1.00 h 723 W/m 16.2 C 24.6 C 7.6 km/h (2 Bft)
02.09.2008 15:00 25.2 C 57 % 1011.1 hPa 0.0 l/m 4.3 km/h (1 Bft) W-NW 1.00 h 608 W/m 16.0 C 25.2 C 8.1 km/h (2 Bft)
02.09.2008 16:00 25.5 C 54 % 1010.5 hPa 0.0 l/m 4.5 km/h (1 Bft) W 1.00 h 470 W/m 15.4 C 25.5 C 7.9 km/h (2 Bft)
02.09.2008 17:00 24.7 C 57 % 1010.0 hPa 0.0 l/m 2.2 km/h (1 Bft) SW 0.92 h 272 W/m 15.5 C 24.7 C 4.9 km/h (1 Bft)
02.09.2008 18:00 23.2 C 66 % 1010.0 hPa 0.0 l/m 6.3 km/h (2 Bft) W-NW 0.17 h 127 W/m 16.5 C 23.2 C 9.8 km/h (2 Bft)
02.09.2008 19:00 21.0 C 71 % 1010.3 hPa 0.0 l/m 3.6 km/h (1 Bft) W 0.00 h 32 W/m 15.5 C 21.0 C 7.3 km/h (2 Bft)
02.09.2008 20:00 19.9 C 73 % 1010.7 hPa 0.0 l/m 0.6 km/h (0 Bft) S-SW 0.00 h 0 W/m 14.8 C 19.9 C 2.3 km/h (1 Bft)
02.09.2008 21:00 18.3 C 81 % 1010.9 hPa 0.0 l/m 2.4 km/h (1 Bft) O-SO 0.00 h 0 W/m 15.0 C 18.3 C 4.1 km/h (1 Bft)
02.09.2008 22:00 17.4 C 85 % 1011.1 hPa 0.0 l/m 3.6 km/h (1 Bft) O-SO 0.00 h 0 W/m 14.8 C 17.4 C 5.6 km/h (1 Bft)
02.09.2008 23:00 16.5 C 88 % 1011.0 hPa 0.0 l/m 2.0 km/h (1 Bft) O-SO 0.00 h 0 W/m 14.6 C 16.5 C 3.2 km/h (1 Bft)
03.09.2008 00:00 15.8 C 91 % 1010.6 hPa 0.0 l/m 0.0 km/h (0 Bft) N 0.00 h 0 W/m 14.3 C 15.8 C 0.1 km/h (0 Bft)
03.09.2008 01:00 15.1 C 94 % 1010.4 hPa 0.0 l/m 0.2 km/h (0 Bft) O-SO 0.00 h 0 W/m 14.1 C 15.1 C 0.7 km/h (0 Bft)
03.09.2008 02:00 15.3 C 96 % 1010.5 hPa 1.0 l/m 1.9 km/h (1 Bft) O-SO 0.00 h 0 W/m 14.7 C 15.3 C 3.3 km/h (1 Bft)
03.09.2008 03:00 15.4 C 98 % 1010.5 hPa 0.0 l/m 0.5 km/h (0 Bft) N-NO 0.00 h 0 W/m 15.2 C 15.4 C 1.8 km/h (1 Bft)
03.09.2008 04:00 15.5 C 100 % 1010.4 hPa 0.2 l/m 0.4 km/h (0 Bft) SO 0.00 h 0 W/m 15.4 C 15.5 C 1.2 km/h (1 Bft)
03.09.2008 05:00 15.1 C 100 % 1010.1 hPa 0.0 l/m 0.1 km/h (0 Bft) N-NO 0.00 h 0 W/m 15.1 C 15.1 C 0.6 km/h (0 Bft)
03.09.2008 06:00 14.5 C 100 % 1010.1 hPa 0.0 l/m 1.0 km/h (0 Bft) NO 0.02 h 7 W/m 14.5 C 14.5 C 2.0 km/h (1 Bft)
03.09.2008 07:00 14.6 C 100 % 1010.3 hPa 0.0 l/m 0.1 km/h (0 Bft) O 0.00 h 34 W/m 14.6 C 14.6 C 0.4 km/h (0 Bft)
03.09.2008 08:00 15.1 C 100 % 1010.3 hPa 0.0 l/m 0.0 km/h (0 Bft) O 0.22 h 127 W/m 15.1 C 15.1 C 0.2 km/h (0 Bft)
03.09.2008 09:00 17.7 C 94 % 1009.9 hPa 0.2 l/m 0.3 km/h (0 Bft) O 1.00 h 341 W/m 16.7 C 17.7 C 1.0 km/h (0 Bft)
03.09.2008 10:00 20.4 C 83 % 1009.0 hPa 0.0 l/m 0.8 km/h (0 Bft) O 1.00 h 497 W/m 17.4 C 20.4 C 2.2 km/h (1 Bft)
03.09.2008 11:00 22.6 C 70 % 1008.2 hPa 0.0 l/m 1.8 km/h (1 Bft) S 1.00 h 606 W/m 16.7 C 22.6 C 4.4 km/h (1 Bft)
03.09.2008 12:00 24.1 C 62 % 1007.2 hPa 0.0 l/m 2.3 km/h (1 Bft) W-SW 1.00 h 671 W/m 16.3 C 24.1 C 5.6 km/h (1 Bft)
03.09.2008 13:00 24.9 C 58 % 1006.4 hPa 0.0 l/m 1.6 km/h (1 Bft) S-SO 1.00 h 667 W/m 16.0 C 24.9 C 3.6 km/h (1 Bft)
03.09.2008 14:00 25.2 C 58 % 1005.6 hPa 0.0 l/m 1.6 km/h (1 Bft) S-SO 0.45 h 471 W/m 16.2 C 25.2 C 3.6 km/h (1 Bft)
03.09.2008 15:00 26.3 C 55 % 1004.6 hPa 0.0 l/m 2.0 km/h (1 Bft) W 0.75 h 506 W/m 16.4 C 26.3 C 4.2 km/h (1 Bft)
03.09.2008 16:00 25.3 C 55 % 1003.7 hPa 0.0 l/m 3.2 km/h (1 Bft) S-SO 0.13 h 205 W/m 15.7 C 25.3 C 5.9 km/h (2 Bft)
03.09.2008 17:00 23.0 C 61 % 1004.1 hPa 0.0 l/m 12.2 km/h (2 Bft) W 0.00 h 53 W/m 14.9 C 23.0 C 20.3 km/h (4 Bft)
03.09.2008 18:00 18.9 C 77 % 1006.8 hPa 0.0 l/m 11.1 km/h (2 Bft) W 0.00 h 26 W/m 14.7 C 18.9 C 17.7 km/h (3 Bft)
03.09.2008 19:00 16.4 C 93 % 1007.9 hPa 2.6 l/m 16.3 km/h (3 Bft) W 0.00 h 7 W/m 15.1 C 16.4 C 24.4 km/h (4 Bft)
03.09.2008 20:00 15.6 C 98 % 1009.1 hPa 0.6 l/m 4.5 km/h (1 Bft) W-SW 0.00 h 0 W/m 15.2 C 15.6 C 8.8 km/h (2 Bft)
03.09.2008 21:00 15.4 C 98 % 1010.1 hPa 1.4 l/m 1.5 km/h (1 Bft) S-SO 0.00 h 0 W/m 15.2 C 15.4 C 3.9 km/h (1 Bft)
03.09.2008 22:00 15.6 C 98 % 1010.0 hPa 0.2 l/m 0.6 km/h (0 Bft) S-SO 0.00 h 0 W/m 15.3 C 15.6 C 1.6 km/h (1 Bft)
03.09.2008 23:00 15.8 C 99 % 1008.9 hPa 0.2 l/m 0.1 km/h (0 Bft) O-SO 0.00 h 0 W/m 15.5 C 15.8 C 0.5 km/h (0 Bft)
04.09.2008 00:00 15.8 C 100 % 1008.5 hPa 0.0 l/m 0.4 km/h (0 Bft) S-SW 0.00 h 0 W/m 15.8 C 15.8 C 1.2 km/h (1 Bft)
04.09.2008 01:00 15.8 C 100 % 1008.2 hPa 0.2 l/m 0.6 km/h (0 Bft) O-SO 0.00 h 0 W/m 15.8 C 15.8 C 1.6 km/h (1 Bft)
04.09.2008 02:00 15.6 C 100 % 1007.8 hPa 0.0 l/m 0.9 km/h (0 Bft) SO 0.00 h 0 W/m 15.6 C 15.6 C 1.6 km/h (1 Bft)
04.09.2008 03:00 16.0 C 100 % 1007.4 hPa 0.2 l/m 0.4 km/h (0 Bft) S-SO 0.00 h 0 W/m 16.0 C 16.0 C 1.6 km/h (1 Bft)
04.09.2008 04:00 16.0 C 100 % 1007.3 hPa 0.2 l/m 0.3 km/h (0 Bft) S-SO 0.00 h 0 W/m 16.0 C 16.0 C 1.0 km/h (0 Bft)
04.09.2008 05:00 16.0 C 100 % 1007.4 hPa 0.2 l/m 0.3 km/h (0 Bft) S-SO 0.00 h 0 W/m 16.0 C 16.0 C 1.0 km/h (0 Bft)
04.09.2008 06:00 15.7 C 100 % 1007.2 hPa 0.0 l/m 0.0 km/h (0 Bft) S-SO 0.00 h 5 W/m 15.7 C 15.7 C 0.5 km/h (0 Bft)
04.09.2008 07:00 15.7 C 100 % 1007.6 hPa 0.0 l/m 0.0 km/h (0 Bft) N 0.00 h 22 W/m 15.7 C 15.7 C 0.1 km/h (0 Bft)
04.09.2008 08:00 16.3 C 100 % 1007.9 hPa 0.0 l/m 0.0 km/h (0 Bft) S-SO 0.00 h 101 W/m 16.3 C 16.3 C 0.5 km/h (0 Bft)
04.09.2008 09:00 16.8 C 100 % 1007.9 hPa 0.0 l/m 0.1 km/h (0 Bft) S-SO 0.00 h 98 W/m 16.8 C 16.8 C 0.5 km/h (0 Bft)
04.09.2008 10:00 17.0 C 100 % 1008.6 hPa 0.6 l/m 0.4 km/h (0 Bft) S-SO 0.00 h 87 W/m 17.0 C 17.0 C 1.6 km/h (1 Bft)
04.09.2008 11:00 17.3 C 99 % 1009.3 hPa 1.0 l/m 1.0 km/h (0 Bft) S 0.00 h 93 W/m 17.2 C 17.3 C 3.6 km/h (1 Bft)
04.09.2008 12:00 17.3 C 98 % 1008.8 hPa 0.2 l/m 1.1 km/h (0 Bft) S 0.00 h 123 W/m 16.9 C 17.3 C 3.1 km/h (1 Bft)
04.09.2008 13:00 17.4 C 94 % 1008.7 hPa 0.0 l/m 2.0 km/h (1 Bft) S-SO 0.00 h 106 W/m 16.4 C 17.4 C 4.2 km/h (1 Bft)
04.09.2008 14:00 17.8 C 90 % 1008.4 hPa 0.0 l/m 2.4 km/h (1 Bft) S-SO 0.00 h 158 W/m 16.1 C 17.8 C 5.0 km/h (1 Bft)
04.09.2008 15:00 18.1 C 89 % 1008.5 hPa 0.2 l/m 3.1 km/h (1 Bft) S-SO 0.00 h 113 W/m 16.2 C 18.1 C 6.1 km/h (2 Bft)
04.09.2008 16:00 17.2 C 95 % 1008.8 hPa 0.4 l/m 5.9 km/h (2 Bft) W 0.00 h 95 W/m 16.4 C 17.2 C 10.5 km/h (2 Bft)
04.09.2008 17:00 16.1 C 97 % 1009.3 hPa 0.4 l/m 2.5 km/h (1 Bft) W 0.00 h 66 W/m 15.6 C 16.1 C 5.2 km/h (1 Bft)
04.09.2008 18:00 15.7 C 98 % 1009.5 hPa 0.0 l/m 0.6 km/h (0 Bft) W-NW 0.00 h 19 W/m 15.3 C 15.7 C 1.7 km/h (1 Bft)
04.09.2008 19:00 15.7 C 97 % 1009.4 hPa 1.2 l/m 0.4 km/h (0 Bft) SO 0.00 h 10 W/m 15.2 C 15.7 C 1.2 km/h (1 Bft)
04.09.2008 20:00 15.3 C 99 % 1009.2 hPa 0.4 l/m 0.1 km/h (0 Bft) W 0.00 h 0 W/m 15.2 C 15.3 C 0.4 km/h (0 Bft)
04.09.2008 21:00 15.3 C 100 % 1009.6 hPa 0.2 l/m 0.6 km/h (0 Bft) W 0.00 h 0 W/m 15.3 C 15.3 C 1.5 km/h (1 Bft)
04.09.2008 22:00 15.3 C 100 % 1009.7 hPa 0.4 l/m 0.3 km/h (0 Bft) SO 0.00 h 0 W/m 15.3 C 15.3 C 0.9 km/h (0 Bft)
04.09.2008 23:00 15.3 C 100 % 1009.1 hPa 0.6 l/m 0.3 km/h (0 Bft) SO 0.00 h 0 W/m 15.3 C 15.3 C 0.8 km/h (0 Bft)
05.09.2008 00:00 15.3 C 100 % 1008.9 hPa 0.4 l/m 1.3 km/h (1 Bft) SO 0.00 h 0 W/m 15.3 C 15.3 C 2.7 km/h (1 Bft)
05.09.2008 01:00 15.3 C 100 % 1008.3 hPa 0.6 l/m 2.5 km/h (1 Bft) O-SO 0.00 h 0 W/m 15.3 C 15.3 C 4.6 km/h (1 Bft)
05.09.2008 02:00 15.3 C 100 % 1009.2 hPa 0.2 l/m 2.1 km/h (1 Bft) W-NW 0.00 h 0 W/m 15.3 C 15.3 C 3.8 km/h (1 Bft)
05.09.2008 03:00 15.4 C 100 % 1008.6 hPa 0.2 l/m 3.1 km/h (1 Bft) O-SO 0.00 h 0 W/m 15.4 C 15.4 C 4.7 km/h (1 Bft)
05.09.2008 04:00 15.3 C 100 % 1008.5 hPa 0.0 l/m 2.3 km/h (1 Bft) O-SO 0.00 h 0 W/m 15.3 C 15.3 C 3.5 km/h (1 Bft)
05.09.2008 05:00 14.8 C 100 % 1008.4 hPa 0.0 l/m 3.9 km/h (1 Bft) SO 0.00 h 0 W/m 14.8 C 14.8 C 5.7 km/h (1 Bft)
05.09.2008 06:00 14.3 C 100 % 1008.3 hPa 0.0 l/m 0.8 km/h (0 Bft) O-SO 0.00 h 5 W/m 14.3 C 14.3 C 1.5 km/h (1 Bft)
05.09.2008 07:00 14.3 C 100 % 1008.6 hPa 0.0 l/m 0.0 km/h (0 Bft) N 0.07 h 44 W/m 14.3 C 14.3 C 0.4 km/h (0 Bft)
05.09.2008 08:00 15.1 C 100 % 1008.5 hPa 0.0 l/m 0.2 km/h (0 Bft) O-SO 0.33 h 132 W/m 15.1 C 15.1 C 1.1 km/h (1 Bft)
05.09.2008 09:00 16.8 C 98 % 1008.2 hPa 0.0 l/m 0.2 km/h (0 Bft) O-SO 0.92 h 344 W/m 16.5 C 16.8 C 1.0 km/h (0 Bft)
05.09.2008 10:00 17.7 C 91 % 1008.2 hPa 0.0 l/m 0.5 km/h (0 Bft) W 0.38 h 333 W/m 16.3 C 17.7 C 1.7 km/h (1 Bft)
05.09.2008 11:00 18.1 C 88 % 1007.8 hPa 0.0 l/m 0.6 km/h (0 Bft) N-NW 0.03 h 191 W/m 16.0 C 18.1 C 2.4 km/h (1 Bft)
05.09.2008 12:00 18.2 C 86 % 1007.4 hPa 0.0 l/m 0.9 km/h (0 Bft) O-SO 0.00 h 179 W/m 15.9 C 18.2 C 2.6 km/h (1 Bft)
05.09.2008 13:00 20.8 C 78 % 1006.4 hPa 0.0 l/m 1.6 km/h (1 Bft) O-SO 0.82 h 733 W/m 16.7 C 20.8 C 3.8 km/h (1 Bft)
05.09.2008 14:00 22.4 C 73 % 1005.7 hPa 0.0 l/m 2.1 km/h (1 Bft) N-NW 1.00 h 692 W/m 17.4 C 22.4 C 4.5 km/h (1 Bft)
05.09.2008 15:00 23.5 C 72 % 1004.5 hPa 0.0 l/m 2.7 km/h (1 Bft) O-SO 0.97 h 529 W/m 18.1 C 23.5 C 5.2 km/h (1 Bft)
05.09.2008 16:00 24.0 C 74 % 1004.0 hPa 0.0 l/m 3.6 km/h (1 Bft) W-NW 0.95 h 403 W/m 19.0 C 24.0 C 6.1 km/h (2 Bft)
05.09.2008 17:00 23.7 C 75 % 1003.8 hPa 0.0 l/m 3.1 km/h (1 Bft) N-NW 0.45 h 215 W/m 19.0 C 23.7 C 5.3 km/h (1 Bft)
05.09.2008 18:00 23.5 C 76 % 1003.5 hPa 0.0 l/m 0.3 km/h (0 Bft) N-NW 0.58 h 142 W/m 18.9 C 23.5 C 1.2 km/h (1 Bft)
05.09.2008 19:00 22.7 C 80 % 1002.8 hPa 0.0 l/m 0.4 km/h (0 Bft) N-NO 0.75 h 59 W/m 19.1 C 22.7 C 1.2 km/h (1 Bft)
05.09.2008 20:00 20.5 C 89 % 1002.5 hPa 0.0 l/m 0.5 km/h (0 Bft) O-NO 0.00 h 0 W/m 18.6 C 20.5 C 1.4 km/h (1 Bft)
05.09.2008 21:00 18.9 C 94 % 1003.0 hPa 0.0 l/m 0.9 km/h (0 Bft) O-NO 0.00 h 0 W/m 18.0 C 18.9 C 2.0 km/h (1 Bft)
05.09.2008 22:00 17.9 C 97 % 1003.2 hPa 0.0 l/m 0.5 km/h (0 Bft) O-NO 0.00 h 0 W/m 17.5 C 17.9 C 1.4 km/h (1 Bft)
05.09.2008 23:00 17.4 C 99 % 1003.7 hPa 0.0 l/m 1.5 km/h (1 Bft) O-NO 0.00 h 0 W/m 17.2 C 17.4 C 2.7 km/h (1 Bft)
06.09.2008 00:00 16.8 C 100 % 1004.2 hPa 0.0 l/m 1.3 km/h (1 Bft) O-SO 0.00 h 0 W/m 16.8 C 16.8 C 2.4 km/h (1 Bft)
06.09.2008 01:00 16.4 C 100 % 1004.8 hPa 0.0 l/m 1.1 km/h (1 Bft) O-SO 0.00 h 0 W/m 16.4 C 16.4 C 2.0 km/h (1 Bft)
06.09.2008 02:00 16.4 C 100 % 1005.6 hPa 0.2 l/m 2.9 km/h (1 Bft) O-SO 0.00 h 0 W/m 16.4 C 16.4 C 4.2 km/h (1 Bft)
06.09.2008 03:00 15.9 C 100 % 1006.0 hPa 0.0 l/m 0.1 km/h (0 Bft) O-SO 0.00 h 0 W/m 15.9 C 15.9 C 0.4 km/h (0 Bft)
06.09.2008 04:00 15.9 C 100 % 1006.1 hPa 0.0 l/m 0.0 km/h (0 Bft) N 0.00 h 0 W/m 15.9 C 15.9 C 0.1 km/h (0 Bft)
06.09.2008 05:00 15.9 C 100 % 1006.0 hPa 0.0 l/m 0.3 km/h (0 Bft) O-SO 0.00 h 0 W/m 15.9 C 15.9 C 0.9 km/h (0 Bft)
06.09.2008 06:00 15.6 C 100 % 1006.2 hPa 0.0 l/m 0.1 km/h (0 Bft) O-SO 0.00 h 0 W/m 15.6 C 15.6 C 0.4 km/h (0 Bft)
06.09.2008 07:00 15.4 C 100 % 1006.5 hPa 0.0 l/m 0.1 km/h (0 Bft) O-SO 0.00 h 21 W/m 15.4 C 15.4 C 0.8 km/h (0 Bft)
06.09.2008 08:00 15.7 C 100 % 1006.9 hPa 0.0 l/m 0.0 km/h (0 Bft) O-SO 0.00 h 61 W/m 15.7 C 15.7 C 0.3 km/h (0 Bft)
06.09.2008 09:00 16.4 C 100 % 1007.2 hPa 0.0 l/m 0.6 km/h (0 Bft) O 0.00 h 120 W/m 16.4 C 16.4 C 1.6 km/h (1 Bft)
06.09.2008 10:00 17.0 C 100 % 1008.0 hPa 0.0 l/m 0.2 km/h (0 Bft) SO 0.10 h 183 W/m 17.0 C 17.0 C 0.7 km/h (0 Bft)
06.09.2008 11:00 19.6 C 85 % 1007.7 hPa 0.0 l/m 0.3 km/h (0 Bft) SO 0.23 h 296 W/m 16.8 C 19.6 C 1.2 km/h (1 Bft)
06.09.2008 12:00 20.1 C 80 % 1008.2 hPa 0.0 l/m 2.9 km/h (1 Bft) W 0.02 h 220 W/m 16.6 C 20.1 C 4.9 km/h (1 Bft)
06.09.2008 13:00 18.4 C 82 % 1008.9 hPa 0.6 l/m 7.3 km/h (2 Bft) W 0.00 h 95 W/m 15.3 C 18.4 C 12.1 km/h (2 Bft)
06.09.2008 14:00 16.2 C 92 % 1009.4 hPa 0.2 l/m 6.1 km/h (2 Bft) W 0.00 h 139 W/m 14.8 C 16.2 C 9.8 km/h (2 Bft)
06.09.2008 15:00 16.5 C 89 % 1009.4 hPa 0.0 l/m 8.0 km/h (2 Bft) W 0.00 h 87 W/m 14.6 C 16.5 C 13.1 km/h (3 Bft)
06.09.2008 16:00 16.5 C 88 % 1009.6 hPa 0.2 l/m 7.2 km/h (2 Bft) W 0.00 h 56 W/m 14.4 C 16.5 C 11.6 km/h (2 Bft)
06.09.2008 17:00 15.3 C 89 % 1010.0 hPa 0.0 l/m 4.6 km/h (1 Bft) W-SW 0.00 h 16 W/m 13.5 C 15.3 C 8.2 km/h (2 Bft)
06.09.2008 18:00 14.7 C 96 % 1010.8 hPa 2.4 l/m 1.1 km/h (1 Bft) W-SW 0.00 h 14 W/m 14.1 C 14.7 C 3.4 km/h (1 Bft)
06.09.2008 19:00 14.4 C 98 % 1011.3 hPa 1.6 l/m 3.5 km/h (1 Bft) S-SO 0.00 h 5 W/m 14.1 C 14.4 C 6.8 km/h (2 Bft)
06.09.2008 20:00 14.2 C 97 % 1012.0 hPa 1.6 l/m 3.5 km/h (1 Bft) S-SO 0.00 h 0 W/m 13.7 C 14.2 C 6.4 km/h (2 Bft)
06.09.2008 21:00 14.2 C 97 % 1012.3 hPa 2.8 l/m 0.5 km/h (0 Bft) SO 0.00 h 0 W/m 13.7 C 14.2 C 1.1 km/h (0 Bft)
06.09.2008 22:00 14.0 C 99 % 1012.4 hPa 0.8 l/m 0.8 km/h (0 Bft) SO 0.00 h 0 W/m 13.8 C 14.0 C 1.9 km/h (1 Bft)
06.09.2008 23:00 14.0 C 98 % 1012.4 hPa 0.4 l/m 0.1 km/h (0 Bft) SO 0.00 h 0 W/m 13.6 C 14.0 C 0.8 km/h (0 Bft)
07.09.2008 00:00 14.0 C 99 % 1012.4 hPa 0.4 l/m 0.1 km/h (0 Bft) SO 0.00 h 0 W/m 13.8 C 14.0 C 0.3 km/h (0 Bft)
07.09.2008 01:00 13.9 C 99 % 1012.6 hPa 1.2 l/m 0.5 km/h (0 Bft) S-SO 0.00 h 0 W/m 13.7 C 13.9 C 1.6 km/h (1 Bft)
07.09.2008 02:00 13.9 C 98 % 1012.5 hPa 0.8 l/m 0.4 km/h (0 Bft) S-SO 0.00 h 0 W/m 13.5 C 13.9 C 1.5 km/h (1 Bft)
07.09.2008 03:00 13.8 C 98 % 1012.4 hPa 0.6 l/m 1.6 km/h (1 Bft) S-SO 0.00 h 0 W/m 13.5 C 13.8 C 3.3 km/h (1 Bft)
07.09.2008 04:00 13.7 C 98 % 1012.4 hPa 0.6 l/m 0.1 km/h (0 Bft) S-SO 0.00 h 0 W/m 13.5 C 13.7 C 0.6 km/h (0 Bft)
07.09.2008 05:00 13.8 C 99 % 1012.2 hPa 0.0 l/m 0.0 km/h (0 Bft) N 0.00 h 0 W/m 13.6 C 13.8 C 0.3 km/h (0 Bft)
07.09.2008 06:00 13.9 C 99 % 1012.2 hPa 0.0 l/m 0.0 km/h (0 Bft) N 0.00 h 0 W/m 13.8 C 13.9 C 0.2 km/h (0 Bft)
07.09.2008 07:00 14.0 C 99 % 1012.7 hPa 0.6 l/m 0.0 km/h (0 Bft) N 0.00 h 5 W/m 13.8 C 14.0 C 0.0 km/h (0 Bft)
07.09.2008 08:00 13.6 C 99 % 1013.2 hPa 0.2 l/m 4.5 km/h (1 Bft) W-NW 0.00 h 24 W/m 13.5 C 13.6 C 8.0 km/h (2 Bft)
07.09.2008 09:00 12.6 C 97 % 1013.6 hPa 0.0 l/m 5.8 km/h (2 Bft) W-NW 0.00 h 98 W/m 12.1 C 12.6 C 9.4 km/h (2 Bft)
07.09.2008 10:00 13.7 C 90 % 1014.1 hPa 0.0 l/m 1.4 km/h (1 Bft) W-NW 0.00 h 118 W/m 12.0 C 13.7 C 3.0 km/h (1 Bft)
07.09.2008 11:00 14.6 C 86 % 1014.4 hPa 0.0 l/m 0.5 km/h (0 Bft) N-NW 0.00 h 201 W/m 12.3 C 14.6 C 1.6 km/h (1 Bft)
07.09.2008 12:00 16.6 C 79 % 1014.3 hPa 0.0 l/m 1.4 km/h (1 Bft) SO 0.43 h 524 W/m 12.8 C 16.6 C 3.9 km/h (1 Bft)
07.09.2008 13:00 18.1 C 73 % 1013.9 hPa 0.0 l/m 2.6 km/h (1 Bft) W-SW 0.45 h 560 W/m 13.1 C 18.1 C 5.4 km/h (1 Bft)
07.09.2008 14:00 18.6 C 73 % 1014.1 hPa 0.0 l/m 3.1 km/h (1 Bft) S-SO 0.50 h 548 W/m 13.6 C 18.6 C 6.5 km/h (2 Bft)
07.09.2008 15:00 18.4 C 72 % 1014.0 hPa 0.0 l/m 3.2 km/h (1 Bft) S-SO 0.72 h 522 W/m 13.3 C 18.4 C 6.7 km/h (2 Bft)
07.09.2008 16:00 18.9 C 69 % 1013.9 hPa 0.0 l/m 3.9 km/h (1 Bft) S-SO 0.98 h 485 W/m 13.1 C 18.9 C 7.4 km/h (2 Bft)
07.09.2008 17:00 19.0 C 67 % 1013.8 hPa 0.0 l/m 2.2 km/h (1 Bft) S-SO 0.93 h 340 W/m 12.9 C 19.0 C 5.4 km/h (1 Bft)
07.09.2008 18:00 18.1 C 70 % 1014.0 hPa 0.0 l/m 1.6 km/h (1 Bft) S 0.58 h 115 W/m 12.6 C 18.1 C 4.4 km/h (1 Bft)
07.09.2008 19:00 16.9 C 77 % 1014.3 hPa 0.0 l/m 1.0 km/h (0 Bft) S-SO 0.03 h 33 W/m 12.8 C 16.9 C 2.8 km/h (1 Bft)
07.09.2008 20:00 15.3 C 84 % 1015.2 hPa 0.0 l/m 0.8 km/h (0 Bft) S 0.00 h 0 W/m 12.6 C 15.3 C 2.2 km/h (1 Bft)
07.09.2008 21:00 14.4 C 88 % 1016.1 hPa 0.0 l/m 2.0 km/h (1 Bft) O-SO 0.00 h 0 W/m 12.3 C 14.4 C 3.5 km/h (1 Bft)
07.09.2008 22:00 13.7 C 92 % 1016.4 hPa 0.0 l/m 0.7 km/h (0 Bft) O-SO 0.00 h 0 W/m 12.4 C 13.7 C 1.8 km/h (1 Bft)
07.09.2008 23:00 12.8 C 95 % 1016.7 hPa 0.0 l/m 2.0 km/h (1 Bft) O-SO 0.00 h 0 W/m 12.0 C 12.8 C 3.4 km/h (1 Bft)
Min-Datum _ 07.09.08 03.09.08 05.09.08 - 01.09.08 - - - 07.09.08 07.09.08 01.09.08
_ Min-Zeit 09:00 15:31 19:45 - 00:04 - - - 12:41 23:58 00:02
Minimum _ 12.3 C 49 % 1002.5 hPa - 0.0 km/h (0 Bft) - - - 11.4 C 12.3 C 0.0 km/h (0 Bft)
Max-Datum _ 03.09.08 01.09.08 01.09.08 01.09.08 03.09.08 - 01.09.08 05.09.08 05.09.08 03.09.08 03.09.08
_ Max-Zeit 15:20 04:23 22:15 00:58 17:44 - 08:16 13:37 16:47 15:20 17:46
Maximum _ 26.7 C 100 % 1018.6 hPa 9.6 l/m 43.5 km/h
W (6 Bft)
- 0.02 h 1032 W/m 19.9 C 26.7 C 66.0 km/h
W (8 Bft)
Durchschnitt _ 17.4 C 90 % 1010.9 hPa #54.8 l/m 1.9 km/h (1 Bft) W #30:18 h 227 W/m 15.4 C 17.4 C 3.8 km/h (1 Bft)
© Kaiko 2008